Impacts TAF Board
For situational awareness. Not to be used for flight planning purposes.
IDs:

KCSG - Columbus Arpt, GA, US

Issued at 1217 UTC 23 Jan 2019
Updated at 1727 UTC 23 Jan 2019
Potential Impact None Slight Moderate High
Time1651Z 23/18Z 23/19Z 23/20Z 23/21Z 23/22Z 23/23Z 24/00Z 24/01Z 24/02Z 24/03Z 24/04Z 24/05Z 24/06Z>>
Type OBS PRVL PRVL PRVL PRVL PRVL PRVL PRVL PRVL PRVL PRVL PRVL PRVL PRVL
VIS 10 >6 >6 >6 >6 >6 >6 >6 5 5 5 5 5 5
CIG 95 35 35 35 35 35 35 35 12 12 12 12 12 12
Cover BKN OVC OVC BKN BKN BKN BKN BKN OVC OVC OVC OVC OVC OVC
FltCat VFR VFR VFR VFR VFR VFR VFR VFR MVFR MVFR MVFR MVFR MVFR MVFR
WX -- VCSH VCSH VCSH VCSH VCSH VCSH VCSH SHRA BR SHRA BR SHRA BR SHRA BR SHRA BR SHRA BR
WDir 160 170 170 170 170 170 170 170 170 170 170 170 170 170
WSpd 16 12 12 12 12 12 12 12 15 15 15 15 15 15
WGst 27 18 18 18 18 18 18 18 25 25 25 25 25 25
Raw TAF
KCSG 231217Z 2312/2412 14008KT P6SM VCSH SCT015 OVC050
  TEMPO 2312/2314 BKN015
  FM231600 17012G18KT P6SM VCSH BKN035 OVC050
  FM232000 17012G18KT P6SM VCSH SCT015 BKN035
  FM240100 17015G25KT 5SM SHRA BR BKN012 OVC035
  FM240700 24014KT 4SM SHRA BR BKN015 OVC030


Raw METAR
KCSG 231651Z 16016G27KT 10SM FEW035 BKN095 19/11 A3006 RMK AO2 PK WND 18030/1618 SLP175 T01940111
KCSG 231551Z 18015G26KT 10SM SCT095 19/11 A3010 RMK AO2 PK WND 18026/1546 SLP190 T01890111
KCSG 231451Z 15010KT 10SM CLR 16/11 A3014 RMK AO2 SLP203 T01610111 58015

METAR Board
Radar Display
Forecast Discussion
For situational awareness. Not to be used for flight planning purposes.